sensor_id;sensor_type;location;lat;lon;timestamp;P1;durP1;ratioP1;P2;durP2;ratioP2
52564;SDS011;38460;53.106;7.004;2023-02-07T00:01:16;21.48;;;10.00;;
52564;SDS011;38460;53.106;7.004;2023-02-07T00:03:43;17.65;;;10.23;;
52564;SDS011;38460;53.106;7.004;2023-02-07T00:06:11;24.30;;;10.20;;
52564;SDS011;38460;53.106;7.004;2023-02-07T00:08:58;24.48;;;10.50;;
52564;SDS011;38460;53.106;7.004;2023-02-07T00:11:24;22.25;;;11.45;;
52564;SDS011;38460;53.106;7.004;2023-02-07T00:13:51;22.65;;;11.50;;
52564;SDS011;38460;53.106;7.004;2023-02-07T00:16:19;24.13;;;11.38;;
52564;SDS011;38460;53.106;7.004;2023-02-07T00:18:46;24.10;;;11.85;;
52564;SDS011;38460;53.106;7.004;2023-02-07T00:21:14;21.77;;;11.00;;
52564;SDS011;38460;53.106;7.004;2023-02-07T00:23:42;26.45;;;13.45;;
52564;SDS011;38460;53.106;7.004;2023-02-07T00:26:08;22.63;;;11.20;;
52564;SDS011;38460;53.106;7.004;2023-02-07T00:28:35;23.60;;;11.95;;
52564;SDS011;38460;53.106;7.004;2023-02-07T00:31:09;25.10;;;11.48;;
52564;SDS011;38460;53.106;7.004;2023-02-07T00:33:44;25.80;;;12.10;;
52564;SDS011;38460;53.106;7.004;2023-02-07T00:36:12;24.00;;;12.50;;
52564;SDS011;38460;53.106;7.004;2023-02-07T00:38:39;29.50;;;12.55;;
52564;SDS011;38460;53.106;7.004;2023-02-07T00:41:05;26.92;;;13.10;;
52564;SDS011;38460;53.106;7.004;2023-02-07T00:43:31;24.33;;;13.60;;
52564;SDS011;38460;53.106;7.004;2023-02-07T00:45:58;22.70;;;12.10;;
52564;SDS011;38460;53.106;7.004;2023-02-07T00:48:25;31.30;;;14.20;;
52564;SDS011;38460;53.106;7.004;2023-02-07T00:50:51;24.50;;;12.70;;
52564;SDS011;38460;53.106;7.004;2023-02-07T00:53:17;21.98;;;12.65;;
52564;SDS011;38460;53.106;7.004;2023-02-07T00:55:43;26.60;;;12.25;;
52564;SDS011;38460;53.106;7.004;2023-02-07T00:58:09;29.80;;;12.40;;
52564;SDS011;38460;53.106;7.004;2023-02-07T01:00:35;29.55;;;13.45;;
52564;SDS011;38460;53.106;7.004;2023-02-07T01:03:01;23.10;;;14.25;;
52564;SDS011;38460;53.106;7.004;2023-02-07T01:05:26;28.60;;;14.10;;
52564;SDS011;38460;53.106;7.004;2023-02-07T01:07:52;23.67;;;13.00;;
52564;SDS011;38460;53.106;7.004;2023-02-07T01:10:18;25.52;;;13.80;;
52564;SDS011;38460;53.106;7.004;2023-02-07T01:12:44;26.08;;;14.13;;
52564;SDS011;38460;53.106;7.004;2023-02-07T01:15:11;32.15;;;14.82;;
52564;SDS011;38460;53.106;7.004;2023-02-07T01:17:36;25.38;;;14.85;;
52564;SDS011;38460;53.106;7.004;2023-02-07T01:20:02;29.08;;;13.95;;
52564;SDS011;38460;53.106;7.004;2023-02-07T01:22:28;29.48;;;13.95;;
52564;SDS011;38460;53.106;7.004;2023-02-07T01:24:54;23.45;;;13.45;;
52564;SDS011;38460;53.106;7.004;2023-02-07T01:27:21;26.85;;;13.18;;
52564;SDS011;38460;53.106;7.004;2023-02-07T01:29:48;26.75;;;15.10;;
52564;SDS011;38460;53.106;7.004;2023-02-07T01:32:17;26.15;;;13.07;;
52564;SDS011;38460;53.106;7.004;2023-02-07T01:34:42;30.08;;;14.77;;
52564;SDS011;38460;53.106;7.004;2023-02-07T01:37:08;25.85;;;14.23;;
52564;SDS011;38460;53.106;7.004;2023-02-07T01:39:34;29.13;;;14.45;;
52564;SDS011;38460;53.106;7.004;2023-02-07T01:41:59;28.40;;;14.57;;
52564;SDS011;38460;53.106;7.004;2023-02-07T01:46:51;22.85;;;13.77;;
52564;SDS011;38460;53.106;7.004;2023-02-07T01:49:20;26.67;;;14.38;;
52564;SDS011;38460;53.106;7.004;2023-02-07T01:51:54;29.98;;;14.35;;
52564;SDS011;38460;53.106;7.004;2023-02-07T01:54:23;27.13;;;13.13;;
52564;SDS011;38460;53.106;7.004;2023-02-07T01:56:56;24.63;;;12.98;;
52564;SDS011;38460;53.106;7.004;2023-02-07T01:59:27;27.42;;;13.63;;
52564;SDS011;38460;53.106;7.004;2023-02-07T02:01:55;30.08;;;14.07;;
52564;SDS011;38460;53.106;7.004;2023-02-07T02:04:21;27.15;;;14.98;;
52564;SDS011;38460;53.106;7.004;2023-02-07T02:06:48;30.38;;;13.45;;
52564;SDS011;38460;53.106;7.004;2023-02-07T02:09:14;28.00;;;13.93;;
52564;SDS011;38460;53.106;7.004;2023-02-07T02:28:14;22.38;;;12.13;;
52564;SDS011;38460;53.106;7.004;2023-02-07T02:34:08;24.27;;;13.30;;
52564;SDS011;38460;53.106;7.004;2023-02-07T02:36:42;23.42;;;13.18;;
52564;SDS011;38460;53.106;7.004;2023-02-07T02:39:27;21.73;;;11.82;;
52564;SDS011;38460;53.106;7.004;2023-02-07T02:45:06;26.95;;;13.90;;
52564;SDS011;38460;53.106;7.004;2023-02-07T02:47:38;26.80;;;12.82;;
52564;SDS011;38460;53.106;7.004;2023-02-07T02:50:12;26.45;;;13.90;;
52564;SDS011;38460;53.106;7.004;2023-02-07T02:52:43;28.50;;;13.82;;
52564;SDS011;38460;53.106;7.004;2023-02-07T02:55:08;22.65;;;13.60;;
52564;SDS011;38460;53.106;7.004;2023-02-07T03:08:53;22.08;;;12.85;;
52564;SDS011;38460;53.106;7.004;2023-02-07T03:11:26;25.33;;;12.60;;
52564;SDS011;38460;53.106;7.004;2023-02-07T03:14:01;22.10;;;12.00;;
52564;SDS011;38460;53.106;7.004;2023-02-07T03:17:12;24.70;;;12.80;;
52564;SDS011;38460;53.106;7.004;2023-02-07T03:19:54;21.92;;;11.73;;
52564;SDS011;38460;53.106;7.004;2023-02-07T03:22:23;19.27;;;11.63;;
52564;SDS011;38460;53.106;7.004;2023-02-07T03:24:53;20.50;;;12.35;;
52564;SDS011;38460;53.106;7.004;2023-02-07T03:27:21;22.92;;;13.18;;
52564;SDS011;38460;53.106;7.004;2023-02-07T03:29:49;20.00;;;12.27;;
52564;SDS011;38460;53.106;7.004;2023-02-07T03:32:21;22.55;;;13.13;;
52564;SDS011;38460;53.106;7.004;2023-02-07T03:34:52;22.80;;;12.93;;
52564;SDS011;38460;53.106;7.004;2023-02-07T03:39:53;20.98;;;12.38;;
52564;SDS011;38460;53.106;7.004;2023-02-07T03:42:30;22.25;;;12.82;;
52564;SDS011;38460;53.106;7.004;2023-02-07T03:44:56;24.58;;;12.98;;
52564;SDS011;38460;53.106;7.004;2023-02-07T03:47:25;23.88;;;13.57;;
52564;SDS011;38460;53.106;7.004;2023-02-07T03:49:51;23.67;;;12.98;;
52564;SDS011;38460;53.106;7.004;2023-02-07T03:52:17;21.25;;;12.80;;
52564;SDS011;38460;53.106;7.004;2023-02-07T03:54:43;22.58;;;13.23;;
52564;SDS011;38460;53.106;7.004;2023-02-07T03:57:09;24.05;;;13.73;;
52564;SDS011;38460;53.106;7.004;2023-02-07T03:59:35;27.75;;;13.77;;
52564;SDS011;38460;53.106;7.004;2023-02-07T04:02:01;24.98;;;14.20;;
52564;SDS011;38460;53.106;7.004;2023-02-07T04:04:27;25.90;;;13.20;;
52564;SDS011;38460;53.106;7.004;2023-02-07T04:06:52;20.92;;;12.07;;
52564;SDS011;38460;53.106;7.004;2023-02-07T04:09:19;25.38;;;13.30;;
52564;SDS011;38460;53.106;7.004;2023-02-07T04:11:47;25.52;;;13.65;;
52564;SDS011;38460;53.106;7.004;2023-02-07T04:14:14;25.10;;;12.52;;
52564;SDS011;38460;53.106;7.004;2023-02-07T04:16:40;26.83;;;13.40;;
52564;SDS011;38460;53.106;7.004;2023-02-07T04:19:05;26.55;;;13.65;;
52564;SDS011;38460;53.106;7.004;2023-02-07T04:21:31;20.20;;;13.02;;
52564;SDS011;38460;53.106;7.004;2023-02-07T04:23:57;28.58;;;14.23;;
52564;SDS011;38460;53.106;7.004;2023-02-07T04:26:22;23.92;;;13.30;;
52564;SDS011;38460;53.106;7.004;2023-02-07T04:28:48;23.88;;;13.00;;
52564;SDS011;38460;53.106;7.004;2023-02-07T04:31:14;26.15;;;13.73;;
52564;SDS011;38460;53.106;7.004;2023-02-07T04:33:40;23.65;;;13.23;;
52564;SDS011;38460;53.106;7.004;2023-02-07T04:36:05;21.73;;;12.63;;
52564;SDS011;38460;53.106;7.004;2023-02-07T04:38:32;21.48;;;13.40;;
52564;SDS011;38460;53.106;7.004;2023-02-07T04:40:58;25.30;;;13.23;;
52564;SDS011;38460;53.106;7.004;2023-02-07T04:43:27;23.67;;;13.18;;
52564;SDS011;38460;53.106;7.004;2023-02-07T04:45:53;21.13;;;12.75;;
52564;SDS011;38460;53.106;7.004;2023-02-07T04:48:19;22.38;;;13.98;;
52564;SDS011;38460;53.106;7.004;2023-02-07T04:50:44;23.67;;;12.40;;
52564;SDS011;38460;53.106;7.004;2023-02-07T04:53:10;25.17;;;12.60;;
52564;SDS011;38460;53.106;7.004;2023-02-07T04:55:36;26.13;;;13.88;;
52564;SDS011;38460;53.106;7.004;2023-02-07T04:58:02;23.88;;;14.00;;
52564;SDS011;38460;53.106;7.004;2023-02-07T05:00:29;23.08;;;14.00;;
52564;SDS011;38460;53.106;7.004;2023-02-07T05:02:55;29.35;;;14.15;;
52564;SDS011;38460;53.106;7.004;2023-02-07T05:05:20;25.55;;;14.25;;
52564;SDS011;38460;53.106;7.004;2023-02-07T05:07:46;25.50;;;13.50;;
52564;SDS011;38460;53.106;7.004;2023-02-07T05:10:12;21.27;;;14.57;;
52564;SDS011;38460;53.106;7.004;2023-02-07T05:12:38;20.63;;;12.77;;
52564;SDS011;38460;53.106;7.004;2023-02-07T05:15:04;33.85;;;13.48;;
52564;SDS011;38460;53.106;7.004;2023-02-07T05:17:30;26.27;;;14.50;;
52564;SDS011;38460;53.106;7.004;2023-02-07T05:19:59;22.27;;;13.60;;
52564;SDS011;38460;53.106;7.004;2023-02-07T05:22:25;27.73;;;15.38;;
52564;SDS011;38460;53.106;7.004;2023-02-07T05:24:51;24.45;;;14.30;;
52564;SDS011;38460;53.106;7.004;2023-02-07T05:27:17;24.20;;;13.23;;
52564;SDS011;38460;53.106;7.004;2023-02-07T05:29:42;23.83;;;12.95;;
52564;SDS011;38460;53.106;7.004;2023-02-07T05:32:10;27.67;;;15.02;;
52564;SDS011;38460;53.106;7.004;2023-02-07T05:34:55;26.60;;;14.73;;
52564;SDS011;38460;53.106;7.004;2023-02-07T05:37:21;25.55;;;13.25;;
52564;SDS011;38460;53.106;7.004;2023-02-07T05:39:47;26.90;;;13.75;;
52564;SDS011;38460;53.106;7.004;2023-02-07T05:42:12;23.42;;;13.65;;
52564;SDS011;38460;53.106;7.004;2023-02-07T05:44:38;25.20;;;14.38;;
52564;SDS011;38460;53.106;7.004;2023-02-07T05:47:04;27.85;;;15.27;;
52564;SDS011;38460;53.106;7.004;2023-02-07T05:49:30;26.63;;;13.85;;
52564;SDS011;38460;53.106;7.004;2023-02-07T05:51:56;29.88;;;14.98;;
52564;SDS011;38460;53.106;7.004;2023-02-07T05:54:21;28.15;;;15.70;;
52564;SDS011;38460;53.106;7.004;2023-02-07T05:56:47;24.02;;;13.95;;
52564;SDS011;38460;53.106;7.004;2023-02-07T05:59:13;26.77;;;13.63;;
52564;SDS011;38460;53.106;7.004;2023-02-07T06:01:39;25.52;;;14.02;;
52564;SDS011;38460;53.106;7.004;2023-02-07T06:04:04;24.75;;;14.40;;
52564;SDS011;38460;53.106;7.004;2023-02-07T06:06:30;28.73;;;15.02;;
52564;SDS011;38460;53.106;7.004;2023-02-07T06:08:56;28.45;;;13.02;;
52564;SDS011;38460;53.106;7.004;2023-02-07T06:11:21;27.55;;;15.35;;
52564;SDS011;38460;53.106;7.004;2023-02-07T06:13:47;29.20;;;14.75;;
52564;SDS011;38460;53.106;7.004;2023-02-07T06:16:13;26.67;;;13.57;;
52564;SDS011;38460;53.106;7.004;2023-02-07T06:18:39;23.25;;;13.23;;
52564;SDS011;38460;53.106;7.004;2023-02-07T06:21:05;29.33;;;14.98;;
52564;SDS011;38460;53.106;7.004;2023-02-07T06:23:30;25.77;;;13.07;;
52564;SDS011;38460;53.106;7.004;2023-02-07T06:25:56;26.55;;;14.48;;
52564;SDS011;38460;53.106;7.004;2023-02-07T06:28:22;24.88;;;13.73;;
52564;SDS011;38460;53.106;7.004;2023-02-07T06:30:49;23.52;;;13.73;;
52564;SDS011;38460;53.106;7.004;2023-02-07T06:33:16;24.25;;;13.88;;
52564;SDS011;38460;53.106;7.004;2023-02-07T06:35:42;23.88;;;15.57;;
52564;SDS011;38460;53.106;7.004;2023-02-07T06:38:12;27.10;;;14.13;;
52564;SDS011;38460;53.106;7.004;2023-02-07T06:40:42;24.45;;;14.30;;
52564;SDS011;38460;53.106;7.004;2023-02-07T06:43:08;25.48;;;15.05;;
52564;SDS011;38460;53.106;7.004;2023-02-07T06:45:35;25.55;;;14.60;;
52564;SDS011;38460;53.106;7.004;2023-02-07T06:48:01;31.13;;;15.77;;
52564;SDS011;38460;53.106;7.004;2023-02-07T06:50:27;27.80;;;13.82;;
52564;SDS011;38460;53.106;7.004;2023-02-07T06:52:52;27.55;;;15.88;;
52564;SDS011;38460;53.106;7.004;2023-02-07T06:55:18;24.63;;;15.43;;
52564;SDS011;38460;53.106;7.004;2023-02-07T06:57:44;33.03;;;15.80;;
52564;SDS011;38460;53.106;7.004;2023-02-07T07:00:13;30.50;;;15.50;;
52564;SDS011;38460;53.106;7.004;2023-02-07T07:02:39;28.88;;;15.65;;
52564;SDS011;38460;53.106;7.004;2023-02-07T07:05:05;31.60;;;17.35;;
52564;SDS011;38460;53.106;7.004;2023-02-07T07:07:32;31.60;;;16.95;;
52564;SDS011;38460;53.106;7.004;2023-02-07T07:09:57;29.33;;;15.70;;
52564;SDS011;38460;53.106;7.004;2023-02-07T07:12:23;27.52;;;16.35;;
52564;SDS011;38460;53.106;7.004;2023-02-07T07:14:50;33.42;;;16.60;;
52564;SDS011;38460;53.106;7.004;2023-02-07T07:17:15;28.02;;;16.63;;
52564;SDS011;38460;53.106;7.004;2023-02-07T07:19:41;28.35;;;16.67;;
52564;SDS011;38460;53.106;7.004;2023-02-07T07:22:07;31.23;;;18.27;;
52564;SDS011;38460;53.106;7.004;2023-02-07T07:24:32;32.88;;;17.85;;
52564;SDS011;38460;53.106;7.004;2023-02-07T07:26:58;32.10;;;15.82;;
52564;SDS011;38460;53.106;7.004;2023-02-07T07:29:24;29.83;;;17.10;;
52564;SDS011;38460;53.106;7.004;2023-02-07T07:31:50;29.10;;;15.75;;
52564;SDS011;38460;53.106;7.004;2023-02-07T07:34:15;31.10;;;17.00;;
52564;SDS011;38460;53.106;7.004;2023-02-07T07:36:41;30.60;;;16.40;;
52564;SDS011;38460;53.106;7.004;2023-02-07T07:39:07;34.38;;;17.10;;
52564;SDS011;38460;53.106;7.004;2023-02-07T07:41:33;35.75;;;16.38;;
52564;SDS011;38460;53.106;7.004;2023-02-07T07:43:58;33.17;;;17.25;;
52564;SDS011;38460;53.106;7.004;2023-02-07T07:46:24;30.13;;;16.92;;
52564;SDS011;38460;53.106;7.004;2023-02-07T07:48:50;28.98;;;16.13;;
52564;SDS011;38460;53.106;7.004;2023-02-07T07:51:16;31.23;;;17.17;;
52564;SDS011;38460;53.106;7.004;2023-02-07T07:53:42;29.67;;;17.10;;
52564;SDS011;38460;53.106;7.004;2023-02-07T07:56:08;33.25;;;17.02;;
52564;SDS011;38460;53.106;7.004;2023-02-07T07:58:34;31.55;;;16.92;;
52564;SDS011;38460;53.106;7.004;2023-02-07T08:00:59;31.88;;;16.55;;
52564;SDS011;38460;53.106;7.004;2023-02-07T08:03:25;28.17;;;16.08;;
52564;SDS011;38460;53.106;7.004;2023-02-07T08:05:51;27.02;;;16.05;;
52564;SDS011;38460;53.106;7.004;2023-02-07T08:08:17;29.63;;;15.85;;
52564;SDS011;38460;53.106;7.004;2023-02-07T08:10:44;30.45;;;17.23;;
52564;SDS011;38460;53.106;7.004;2023-02-07T08:13:10;30.33;;;16.27;;
52564;SDS011;38460;53.106;7.004;2023-02-07T08:15:36;29.70;;;17.02;;
52564;SDS011;38460;53.106;7.004;2023-02-07T08:18:03;28.38;;;15.77;;
52564;SDS011;38460;53.106;7.004;2023-02-07T08:20:29;27.55;;;16.83;;
52564;SDS011;38460;53.106;7.004;2023-02-07T08:22:55;30.90;;;16.23;;
52564;SDS011;38460;53.106;7.004;2023-02-07T08:25:22;28.08;;;16.00;;
52564;SDS011;38460;53.106;7.004;2023-02-07T08:27:48;30.23;;;16.42;;
52564;SDS011;38460;53.106;7.004;2023-02-07T08:30:14;27.00;;;14.98;;
52564;SDS011;38460;53.106;7.004;2023-02-07T08:32:41;25.52;;;13.85;;
52564;SDS011;38460;53.106;7.004;2023-02-07T08:35:07;26.55;;;16.15;;
52564;SDS011;38460;53.106;7.004;2023-02-07T08:37:33;29.63;;;14.73;;
52564;SDS011;38460;53.106;7.004;2023-02-07T08:39:59;25.83;;;15.05;;
52564;SDS011;38460;53.106;7.004;2023-02-07T08:42:25;26.27;;;15.38;;
52564;SDS011;38460;53.106;7.004;2023-02-07T08:44:50;22.77;;;14.52;;
52564;SDS011;38460;53.106;7.004;2023-02-07T08:47:16;24.98;;;15.00;;
52564;SDS011;38460;53.106;7.004;2023-02-07T08:49:42;27.73;;;15.48;;
52564;SDS011;38460;53.106;7.004;2023-02-07T08:52:11;24.58;;;15.27;;
52564;SDS011;38460;53.106;7.004;2023-02-07T08:54:37;27.40;;;14.85;;
52564;SDS011;38460;53.106;7.004;2023-02-07T08:57:03;26.75;;;14.07;;
52564;SDS011;38460;53.106;7.004;2023-02-07T08:59:29;24.10;;;14.02;;
52564;SDS011;38460;53.106;7.004;2023-02-07T09:01:55;23.95;;;14.00;;
52564;SDS011;38460;53.106;7.004;2023-02-07T09:04:21;25.90;;;13.63;;
52564;SDS011;38460;53.106;7.004;2023-02-07T09:06:46;24.35;;;13.98;;
52564;SDS011;38460;53.106;7.004;2023-02-07T09:09:12;24.17;;;13.98;;
52564;SDS011;38460;53.106;7.004;2023-02-07T09:11:38;21.95;;;13.38;;
52564;SDS011;38460;53.106;7.004;2023-02-07T09:14:04;21.98;;;13.50;;
52564;SDS011;38460;53.106;7.004;2023-02-07T09:16:29;23.33;;;13.15;;
52564;SDS011;38460;53.106;7.004;2023-02-07T09:18:55;19.63;;;12.55;;
52564;SDS011;38460;53.106;7.004;2023-02-07T09:21:21;21.38;;;12.93;;
52564;SDS011;38460;53.106;7.004;2023-02-07T09:23:47;23.17;;;13.32;;
52564;SDS011;38460;53.106;7.004;2023-02-07T09:26:18;20.70;;;13.57;;
52564;SDS011;38460;53.106;7.004;2023-02-07T09:28:45;23.30;;;13.23;;
52564;SDS011;38460;53.106;7.004;2023-02-07T09:31:12;19.70;;;12.90;;
52564;SDS011;38460;53.106;7.004;2023-02-07T09:33:39;23.63;;;14.27;;
52564;SDS011;38460;53.106;7.004;2023-02-07T09:36:05;20.27;;;11.50;;
52564;SDS011;38460;53.106;7.004;2023-02-07T09:38:41;19.85;;;12.23;;
52564;SDS011;38460;53.106;7.004;2023-02-07T09:46:53;18.77;;;11.90;;
52564;SDS011;38460;53.106;7.004;2023-02-07T09:52:27;16.17;;;10.57;;
52564;SDS011;38460;53.106;7.004;2023-02-07T09:55:15;19.23;;;11.38;;
52564;SDS011;38460;53.106;7.004;2023-02-07T09:57:44;19.20;;;11.57;;
52564;SDS011;38460;53.106;7.004;2023-02-07T10:00:23;17.45;;;10.93;;
52564;SDS011;38460;53.106;7.004;2023-02-07T10:05:45;16.90;;;10.05;;
52564;SDS011;38460;53.106;7.004;2023-02-07T10:08:18;17.90;;;10.50;;
52564;SDS011;38460;53.106;7.004;2023-02-07T10:10:45;16.95;;;10.27;;
52564;SDS011;38460;53.106;7.004;2023-02-07T10:16:16;14.45;;;10.77;;
52564;SDS011;38460;53.106;7.004;2023-02-07T10:18:53;16.00;;;10.65;;
52564;SDS011;38460;53.106;7.004;2023-02-07T10:27:13;16.90;;;10.77;;
52564;SDS011;38460;53.106;7.004;2023-02-07T10:29:54;16.92;;;10.30;;
52564;SDS011;38460;53.106;7.004;2023-02-07T10:32:30;18.08;;;10.60;;
52564;SDS011;38460;53.106;7.004;2023-02-07T10:34:58;16.40;;;10.18;;
52564;SDS011;38460;53.106;7.004;2023-02-07T10:37:43;18.20;;;9.55;;
52564;SDS011;38460;53.106;7.004;2023-02-07T10:42:46;17.77;;;9.80;;
52564;SDS011;38460;53.106;7.004;2023-02-07T10:45:20;16.17;;;10.48;;
52564;SDS011;38460;53.106;7.004;2023-02-07T10:47:46;14.45;;;9.13;;
52564;SDS011;38460;53.106;7.004;2023-02-07T10:50:14;13.82;;;9.20;;
52564;SDS011;38460;53.106;7.004;2023-02-07T10:52:43;15.32;;;9.70;;
52564;SDS011;38460;53.106;7.004;2023-02-07T10:55:32;14.50;;;9.15;;
52564;SDS011;38460;53.106;7.004;2023-02-07T10:58:15;17.23;;;9.75;;
52564;SDS011;38460;53.106;7.004;2023-02-07T11:00:46;16.15;;;9.45;;
52564;SDS011;38460;53.106;7.004;2023-02-07T11:03:18;15.23;;;9.38;;
52564;SDS011;38460;53.106;7.004;2023-02-07T11:08:29;12.57;;;8.90;;
52564;SDS011;38460;53.106;7.004;2023-02-07T11:11:15;14.73;;;9.37;;
52564;SDS011;38460;53.106;7.004;2023-02-07T11:13:46;17.10;;;10.05;;
52564;SDS011;38460;53.106;7.004;2023-02-07T11:16:15;15.70;;;9.43;;
52564;SDS011;38460;53.106;7.004;2023-02-07T11:23:52;14.85;;;9.10;;
52564;SDS011;38460;53.106;7.004;2023-02-07T11:26:21;13.27;;;9.40;;
52564;SDS011;38460;53.106;7.004;2023-02-07T11:28:51;16.85;;;10.45;;
52564;SDS011;38460;53.106;7.004;2023-02-07T11:31:29;15.25;;;9.68;;
52564;SDS011;38460;53.106;7.004;2023-02-07T11:34:08;13.75;;;9.65;;
52564;SDS011;38460;53.106;7.004;2023-02-07T11:37:07;14.73;;;9.98;;
52564;SDS011;38460;53.106;7.004;2023-02-07T11:39:35;15.85;;;10.35;;
52564;SDS011;38460;53.106;7.004;2023-02-07T11:42:10;15.27;;;9.70;;
52564;SDS011;38460;53.106;7.004;2023-02-07T11:44:42;16.80;;;9.63;;
52564;SDS011;38460;53.106;7.004;2023-02-07T11:47:21;14.13;;;9.35;;
52564;SDS011;38460;53.106;7.004;2023-02-07T11:53:03;17.02;;;11.05;;
52564;SDS011;38460;53.106;7.004;2023-02-07T11:55:34;19.23;;;10.68;;
52564;SDS011;38460;53.106;7.004;2023-02-07T11:58:08;19.52;;;10.98;;
52564;SDS011;38460;53.106;7.004;2023-02-07T12:00:41;16.83;;;11.77;;
52564;SDS011;38460;53.106;7.004;2023-02-07T12:03:17;21.75;;;10.85;;
52564;SDS011;38460;53.106;7.004;2023-02-07T12:08:22;17.27;;;10.90;;
52564;SDS011;38460;53.106;7.004;2023-02-07T12:13:54;18.75;;;10.98;;
52564;SDS011;38460;53.106;7.004;2023-02-07T12:16:33;18.55;;;11.43;;
52564;SDS011;38460;53.106;7.004;2023-02-07T12:21:39;14.80;;;10.55;;
52564;SDS011;38460;53.106;7.004;2023-02-07T12:27:01;16.33;;;10.40;;
52564;SDS011;38460;53.106;7.004;2023-02-07T12:32:13;16.33;;;11.40;;
52564;SDS011;38460;53.106;7.004;2023-02-07T12:40:38;18.67;;;10.73;;
52564;SDS011;38460;53.106;7.004;2023-02-07T12:43:27;19.17;;;11.38;;
52564;SDS011;38460;53.106;7.004;2023-02-07T12:54:12;20.17;;;10.73;;
52564;SDS011;38460;53.106;7.004;2023-02-07T13:04:54;20.42;;;11.82;;
52564;SDS011;38460;53.106;7.004;2023-02-07T13:10:19;18.23;;;11.27;;
52564;SDS011;38460;53.106;7.004;2023-02-07T13:18:43;18.20;;;10.40;;
52564;SDS011;38460;53.106;7.004;2023-02-07T13:21:39;14.77;;;9.20;;
52564;SDS011;38460;53.106;7.004;2023-02-07T13:24:16;19.17;;;11.02;;
52564;SDS011;38460;53.106;7.004;2023-02-07T13:26:59;16.35;;;10.63;;
52564;SDS011;38460;53.106;7.004;2023-02-07T13:29:29;22.40;;;10.55;;
52564;SDS011;38460;53.106;7.004;2023-02-07T13:31:59;16.75;;;10.15;;
52564;SDS011;38460;53.106;7.004;2023-02-07T13:34:34;17.05;;;10.23;;
52564;SDS011;38460;53.106;7.004;2023-02-07T13:37:08;17.45;;;10.57;;
52564;SDS011;38460;53.106;7.004;2023-02-07T13:50:40;16.38;;;10.07;;
52564;SDS011;38460;53.106;7.004;2023-02-07T13:56:32;16.48;;;10.07;;
52564;SDS011;38460;53.106;7.004;2023-02-07T14:02:19;17.30;;;9.88;;
52564;SDS011;38460;53.106;7.004;2023-02-07T14:04:56;15.82;;;9.65;;
52564;SDS011;38460;53.106;7.004;2023-02-07T14:07:31;18.55;;;10.40;;
52564;SDS011;38460;53.106;7.004;2023-02-07T14:10:00;14.93;;;9.40;;
52564;SDS011;38460;53.106;7.004;2023-02-07T14:12:28;15.20;;;9.57;;
52564;SDS011;38460;53.106;7.004;2023-02-07T14:18:02;14.73;;;9.10;;
52564;SDS011;38460;53.106;7.004;2023-02-07T14:23:13;15.07;;;9.63;;
52564;SDS011;38460;53.106;7.004;2023-02-07T14:25:44;17.27;;;10.00;;
52564;SDS011;38460;53.106;7.004;2023-02-07T14:28:16;14.52;;;9.20;;
52564;SDS011;38460;53.106;7.004;2023-02-07T14:31:11;15.55;;;9.60;;
52564;SDS011;38460;53.106;7.004;2023-02-07T14:34:07;16.77;;;9.82;;
52564;SDS011;38460;53.106;7.004;2023-02-07T14:36:35;12.57;;;8.57;;
52564;SDS011;38460;53.106;7.004;2023-02-07T14:39:03;14.45;;;9.13;;
52564;SDS011;38460;53.106;7.004;2023-02-07T14:41:36;14.15;;;9.38;;
52564;SDS011;38460;53.106;7.004;2023-02-07T14:44:05;16.73;;;9.68;;
52564;SDS011;38460;53.106;7.004;2023-02-07T14:46:47;15.98;;;9.75;;
52564;SDS011;38460;53.106;7.004;2023-02-07T14:49:19;15.20;;;9.23;;
52564;SDS011;38460;53.106;7.004;2023-02-07T14:52:07;16.05;;;9.77;;
52564;SDS011;38460;53.106;7.004;2023-02-07T14:57:25;14.20;;;9.20;;
52564;SDS011;38460;53.106;7.004;2023-02-07T15:02:49;14.93;;;9.30;;
52564;SDS011;38460;53.106;7.004;2023-02-07T15:05:21;15.65;;;9.65;;
52564;SDS011;38460;53.106;7.004;2023-02-07T15:07:47;16.83;;;10.07;;
52564;SDS011;38460;53.106;7.004;2023-02-07T15:10:24;16.48;;;9.82;;
52564;SDS011;38460;53.106;7.004;2023-02-07T15:12:52;13.80;;;9.30;;
52564;SDS011;38460;53.106;7.004;2023-02-07T15:17:52;14.05;;;9.00;;
52564;SDS011;38460;53.106;7.004;2023-02-07T15:20:30;16.77;;;10.23;;
52564;SDS011;38460;53.106;7.004;2023-02-07T15:22:59;15.68;;;9.52;;
52564;SDS011;38460;53.106;7.004;2023-02-07T15:25:27;16.30;;;9.63;;
52564;SDS011;38460;53.106;7.004;2023-02-07T15:27:59;17.42;;;10.13;;
52564;SDS011;38460;53.106;7.004;2023-02-07T15:30:30;16.88;;;10.32;;
52564;SDS011;38460;53.106;7.004;2023-02-07T15:32:56;16.20;;;9.65;;
52564;SDS011;38460;53.106;7.004;2023-02-07T15:35:23;15.85;;;10.13;;
52564;SDS011;38460;53.106;7.004;2023-02-07T15:37:51;16.05;;;10.57;;
52564;SDS011;38460;53.106;7.004;2023-02-07T15:40:19;14.43;;;9.73;;
52564;SDS011;38460;53.106;7.004;2023-02-07T15:42:51;17.35;;;9.20;;
52564;SDS011;38460;53.106;7.004;2023-02-07T15:45:22;19.58;;;10.45;;
52564;SDS011;38460;53.106;7.004;2023-02-07T15:47:56;16.73;;;10.13;;
52564;SDS011;38460;53.106;7.004;2023-02-07T15:50:38;16.42;;;9.77;;
52564;SDS011;38460;53.106;7.004;2023-02-07T15:53:04;14.80;;;9.52;;
52564;SDS011;38460;53.106;7.004;2023-02-07T15:55:42;16.88;;;9.32;;
52564;SDS011;38460;53.106;7.004;2023-02-07T15:58:17;14.48;;;9.75;;
52564;SDS011;38460;53.106;7.004;2023-02-07T16:00:49;16.83;;;10.63;;
52564;SDS011;38460;53.106;7.004;2023-02-07T16:03:17;17.30;;;9.88;;
52564;SDS011;38460;53.106;7.004;2023-02-07T16:05:45;15.75;;;9.88;;
52564;SDS011;38460;53.106;7.004;2023-02-07T16:16:32;14.60;;;9.63;;
52564;SDS011;38460;53.106;7.004;2023-02-07T16:19:34;15.27;;;10.65;;
52564;SDS011;38460;53.106;7.004;2023-02-07T16:21:59;17.98;;;10.00;;
52564;SDS011;38460;53.106;7.004;2023-02-07T16:24:34;28.80;;;20.27;;
52564;SDS011;38460;53.106;7.004;2023-02-07T16:27:02;24.83;;;17.75;;
52564;SDS011;38460;53.106;7.004;2023-02-07T16:29:30;19.00;;;11.90;;
52564;SDS011;38460;53.106;7.004;2023-02-07T16:31:56;21.38;;;11.68;;
52564;SDS011;38460;53.106;7.004;2023-02-07T16:34:22;16.98;;;10.55;;
52564;SDS011;38460;53.106;7.004;2023-02-07T16:36:49;16.38;;;11.05;;
52564;SDS011;38460;53.106;7.004;2023-02-07T16:39:16;16.48;;;10.85;;
52564;SDS011;38460;53.106;7.004;2023-02-07T16:41:43;18.30;;;11.52;;
52564;SDS011;38460;53.106;7.004;2023-02-07T16:44:19;21.83;;;13.07;;
52564;SDS011;38460;53.106;7.004;2023-02-07T16:46:48;17.42;;;11.73;;
52564;SDS011;38460;53.106;7.004;2023-02-07T16:49:15;16.05;;;11.23;;
52564;SDS011;38460;53.106;7.004;2023-02-07T16:51:43;16.98;;;11.07;;
52564;SDS011;38460;53.106;7.004;2023-02-07T16:54:09;19.35;;;11.10;;
52564;SDS011;38460;53.106;7.004;2023-02-07T16:56:35;17.63;;;10.73;;
52564;SDS011;38460;53.106;7.004;2023-02-07T16:59:02;19.85;;;12.63;;
52564;SDS011;38460;53.106;7.004;2023-02-07T17:01:28;17.67;;;11.50;;
52564;SDS011;38460;53.106;7.004;2023-02-07T17:03:54;17.45;;;11.60;;
52564;SDS011;38460;53.106;7.004;2023-02-07T17:06:21;20.63;;;11.45;;
52564;SDS011;38460;53.106;7.004;2023-02-07T17:08:48;20.27;;;12.38;;
52564;SDS011;38460;53.106;7.004;2023-02-07T17:11:19;19.20;;;12.27;;
52564;SDS011;38460;53.106;7.004;2023-02-07T17:13:56;18.92;;;12.75;;